Avon, Connecticut
Current Conditions -  °F | °C
As of 4:53 PM on Thursday 23 Oct 2014 (Local Time) from KHFD Reporting Station
Overcast Overcast  
Wind Chill: 54°   Ceiling: 1800
Heat Index: 54°   Visibility: 10mi
Dew Point: 47°   Wind: 15mph
Humidity: 77%   Direction: 350°N
Pressure: 29.66"   Gusts: 26mph
Location:  41.81°N, 72.83°W
Report Text: KHFD 232053Z 35013G23KT 10SM OVC018 12/08 A2966 RMK AO2 SLP042 T01220083 53000
Loading
Personal Weather Stations






























Interactive Weather Map
Tropical Storm Tracking
New forecast layout! Learn more

10-Day Weather Forecast

Advertisements
Track Severe Weather on mobile